createdAt,value
2023-03-31T00:00:18.755Z,10.17
2023-03-31T00:02:52.865Z,10.12
2023-03-31T00:05:33.734Z,10.07
2023-03-31T00:08:03.336Z,10.11
2023-03-31T00:10:40.733Z,10.08
2023-03-31T00:13:07.462Z,10.09
2023-03-31T00:15:34.191Z,10.02
2023-03-31T00:18:07.824Z,10.04
2023-03-31T00:20:38.278Z,10.01
2023-03-31T00:23:17.800Z,9.97
2023-03-31T00:25:45.239Z,9.94
2023-03-31T00:28:18.830Z,9.92
2023-03-31T00:30:46.563Z,9.88
2023-03-31T00:33:20.735Z,9.90
2023-03-31T00:35:52.247Z,9.89
2023-03-31T00:38:28.726Z,9.86
2023-03-31T00:40:55.571Z,9.84
2023-03-31T00:43:38.845Z,9.83
2023-03-31T00:46:18.303Z,9.84
2023-03-31T00:48:58.755Z,9.82
2023-03-31T00:51:38.756Z,9.74
2023-03-31T00:54:08.761Z,9.84
2023-03-31T00:56:45.809Z,9.88
2023-03-31T00:59:13.573Z,9.86
2023-03-31T01:01:49.750Z,9.84
2023-03-31T01:04:24.143Z,9.83
2023-03-31T01:07:33.857Z,9.83
2023-03-31T01:10:03.969Z,9.85
2023-03-31T01:12:39.837Z,9.80
2023-03-31T01:15:07.842Z,9.82
2023-03-31T01:17:41.959Z,9.84
2023-03-31T01:20:14.844Z,9.84
2023-03-31T01:23:00.844Z,9.80
2023-03-31T01:25:38.955Z,9.86
2023-03-31T01:28:24.844Z,9.87
2023-03-31T01:30:54.452Z,9.90
2023-03-31T01:33:42.780Z,9.91
2023-03-31T01:36:53.749Z,9.92
2023-03-31T01:40:01.791Z,9.94
2023-03-31T01:42:49.822Z,9.95
2023-03-31T01:45:36.687Z,9.98
2023-03-31T01:48:24.870Z,10.01
2023-03-31T01:51:05.892Z,10.04
2023-03-31T01:53:54.819Z,10.05
2023-03-31T01:56:52.840Z,10.06
2023-03-31T01:59:48.889Z,10.01
2023-03-31T02:02:28.901Z,9.95
2023-03-31T02:05:16.774Z,9.93
2023-03-31T02:08:09.652Z,9.86
2023-03-31T02:10:43.871Z,9.80
2023-03-31T02:13:13.178Z,9.78
2023-03-31T02:15:50.876Z,9.76
2023-03-31T02:18:26.332Z,9.73
2023-03-31T02:21:01.855Z,9.71
2023-03-31T02:23:32.086Z,9.67
2023-03-31T02:26:37.903Z,9.67
2023-03-31T02:29:05.081Z,9.63
2023-03-31T02:31:34.855Z,9.62
2023-03-31T02:34:09.863Z,9.59
2023-03-31T02:36:38.034Z,9.56
2023-03-31T02:39:22.912Z,9.56
2023-03-31T02:41:50.254Z,9.53
2023-03-31T02:44:24.803Z,9.49
2023-03-31T02:46:58.854Z,9.50
2023-03-31T02:49:31.882Z,9.49
2023-03-31T02:52:12.629Z,9.48
2023-03-31T02:55:03.809Z,9.47
2023-03-31T02:57:52.286Z,9.46
2023-03-31T03:00:47.942Z,9.42
2023-03-31T03:03:33.006Z,9.41
2023-03-31T03:06:20.827Z,9.39
2023-03-31T03:08:57.922Z,9.37
2023-03-31T03:11:44.866Z,9.36
2023-03-31T03:14:36.196Z,9.33
2023-03-31T03:17:20.894Z,9.35
2023-03-31T03:19:55.381Z,9.35
2023-03-31T03:22:29.943Z,9.32
2023-03-31T03:24:56.700Z,9.34
2023-03-31T03:27:29.936Z,9.33
2023-03-31T03:29:56.902Z,9.33
2023-03-31T03:32:29.916Z,9.33
2023-03-31T03:34:56.988Z,9.31
2023-03-31T03:37:29.959Z,9.31
2023-03-31T03:39:56.756Z,9.31
2023-03-31T03:42:29.927Z,9.30
2023-03-31T03:44:56.831Z,9.30
2023-03-31T03:47:29.923Z,9.30
2023-03-31T03:50:02.900Z,9.30
2023-03-31T03:52:29.660Z,9.30
2023-03-31T03:55:02.913Z,9.29
2023-03-31T03:57:35.858Z,9.30
2023-03-31T04:00:08.840Z,9.31
2023-03-31T04:02:35.695Z,9.30
2023-03-31T04:05:15.956Z,9.32
2023-03-31T04:07:49.285Z,9.35
2023-03-31T04:10:22.925Z,9.35
2023-03-31T04:12:55.914Z,9.35
2023-03-31T04:15:29.138Z,9.39
2023-03-31T04:17:58.433Z,9.41
2023-03-31T04:20:36.876Z,9.40
2023-03-31T04:23:09.948Z,9.41
2023-03-31T04:25:44.915Z,9.43
2023-03-31T04:28:20.864Z,9.42
2023-03-31T04:30:47.864Z,9.44
2023-03-31T04:33:22.877Z,9.46
2023-03-31T04:35:49.991Z,9.46
2023-03-31T04:38:28.959Z,9.46
2023-03-31T04:40:56.457Z,9.45
2023-03-31T04:43:29.938Z,9.43
2023-03-31T04:45:56.886Z,9.43
2023-03-31T04:48:29.951Z,9.40
2023-03-31T04:50:56.660Z,9.41
2023-03-31T04:53:23.812Z,9.39
2023-03-31T04:55:57.963Z,9.38
2023-03-31T04:58:24.763Z,9.37
2023-03-31T05:00:59.017Z,9.37
2023-03-31T05:03:32.496Z,9.36
2023-03-31T05:06:12.902Z,9.31
2023-03-31T05:08:39.628Z,9.34
2023-03-31T05:11:13.974Z,9.29
2023-03-31T05:13:40.787Z,9.33
2023-03-31T05:16:15.983Z,9.31
2023-03-31T05:18:42.910Z,9.32
2023-03-31T05:21:24.921Z,9.32
2023-03-31T05:23:51.796Z,9.30
2023-03-31T05:26:25.941Z,9.30
2023-03-31T05:28:54.171Z,9.26
2023-03-31T05:31:21.068Z,9.28
2023-03-31T05:33:54.932Z,9.28
2023-03-31T05:36:29.969Z,9.29
2023-03-31T05:38:56.756Z,9.30
2023-03-31T05:41:29.912Z,9.29
2023-03-31T05:43:56.736Z,9.30
2023-03-31T05:46:30.064Z,9.30
2023-03-31T05:49:03.012Z,9.29
2023-03-31T05:51:29.910Z,9.29
2023-03-31T05:54:02.972Z,9.29
2023-03-31T05:56:30.267Z,9.30
2023-03-31T05:59:05.270Z,9.30
2023-03-31T06:01:32.731Z,9.31
2023-03-31T06:04:05.977Z,9.32
2023-03-31T06:06:37.587Z,9.33
2023-03-31T06:09:12.998Z,9.34
2023-03-31T06:11:39.787Z,9.36
2023-03-31T06:14:12.980Z,9.35
2023-03-31T06:16:45.993Z,9.39
2023-03-31T06:19:19.210Z,9.40
2023-03-31T06:21:46.576Z,9.42
2023-03-31T06:24:13.384Z,9.43
2023-03-31T06:26:46.983Z,9.47
2023-03-31T06:29:13.767Z,9.48
2023-03-31T06:31:46.956Z,9.49
2023-03-31T06:34:13.688Z,9.56
2023-03-31T06:36:46.900Z,9.58
2023-03-31T06:39:13.684Z,9.61
2023-03-31T06:41:46.978Z,9.63
2023-03-31T06:44:22.912Z,9.66
2023-03-31T06:46:55.952Z,9.68
2023-03-31T06:49:22.876Z,9.70
2023-03-31T06:51:55.975Z,9.68
2023-03-31T06:54:22.865Z,9.74
2023-03-31T06:56:56.009Z,9.75
2023-03-31T06:59:29.135Z,9.75
2023-03-31T07:02:03.079Z,9.75
2023-03-31T07:04:37.001Z,9.75
2023-03-31T07:07:10.141Z,9.74
2023-03-31T07:09:43.943Z,9.78
2023-03-31T07:12:11.117Z,9.83
2023-03-31T07:14:43.953Z,9.86
2023-03-31T07:17:10.936Z,9.90
2023-03-31T07:19:44.994Z,9.94
2023-03-31T07:22:11.993Z,10.00
2023-03-31T07:24:51.996Z,10.03
2023-03-31T07:27:26.383Z,10.07
2023-03-31T07:30:00.018Z,10.09
2023-03-31T07:32:33.049Z,10.15
2023-03-31T07:35:00.324Z,10.18
2023-03-31T07:37:36.981Z,10.18
2023-03-31T07:40:05.835Z,10.25
2023-03-31T07:42:39.914Z,10.27
2023-03-31T07:45:07.979Z,10.29
2023-03-31T07:47:41.017Z,10.31
2023-03-31T07:50:08.479Z,10.41
2023-03-31T07:52:44.174Z,10.46
2023-03-31T07:55:13.153Z,10.50
2023-03-31T07:57:47.010Z,10.50
2023-03-31T08:00:22.189Z,10.56
2023-03-31T08:03:02.039Z,10.53
2023-03-31T08:05:35.153Z,10.57
2023-03-31T08:08:09.025Z,10.57
2023-03-31T08:10:35.985Z,10.60
2023-03-31T08:13:09.097Z,10.58
2023-03-31T08:15:35.955Z,10.63
2023-03-31T08:18:11.133Z,10.62
2023-03-31T08:20:47.752Z,10.63
2023-03-31T08:23:16.947Z,10.62
2023-03-31T08:25:50.016Z,10.62
2023-03-31T08:28:17.758Z,10.65
2023-03-31T08:30:51.134Z,10.64
2023-03-31T08:33:18.097Z,10.62
2023-03-31T08:35:52.111Z,10.67
2023-03-31T08:38:18.978Z,10.65
2023-03-31T08:40:52.116Z,10.67
2023-03-31T08:43:27.894Z,10.64
2023-03-31T08:46:01.041Z,10.63
2023-03-31T08:48:32.750Z,10.61
2023-03-31T08:51:22.041Z,10.55
2023-03-31T08:53:59.579Z,10.57
2023-03-31T08:56:34.017Z,10.55
2023-03-31T08:59:37.963Z,10.52
2023-03-31T09:02:11.225Z,10.47
2023-03-31T09:05:13.246Z,10.43
2023-03-31T09:08:31.149Z,10.39
2023-03-31T09:11:34.125Z,10.34
2023-03-31T09:14:31.158Z,10.27
2023-03-31T09:17:22.779Z,10.26
2023-03-31T09:20:08.067Z,10.24
2023-03-31T09:22:43.672Z,10.25
2023-03-31T09:25:30.127Z,10.20
2023-03-31T09:28:06.085Z,10.18
2023-03-31T09:30:42.061Z,10.18
2023-03-31T09:33:17.020Z,10.11
2023-03-31T09:35:52.220Z,10.06
2023-03-31T09:38:19.151Z,10.04
2023-03-31T09:40:53.053Z,10.02
2023-03-31T09:43:24.429Z,10.01
2023-03-31T09:46:14.752Z,9.98
2023-03-31T09:48:50.926Z,9.95
2023-03-31T09:51:29.097Z,9.93
2023-03-31T09:54:25.993Z,9.90
2023-03-31T09:57:02.168Z,9.85
2023-03-31T09:59:34.581Z,9.84
2023-03-31T10:02:23.054Z,9.83
2023-03-31T10:04:57.241Z,9.84
2023-03-31T10:07:38.072Z,9.88
2023-03-31T10:10:19.229Z,9.85
2023-03-31T10:12:58.109Z,9.96
2023-03-31T10:15:28.495Z,9.97
2023-03-31T10:18:05.131Z,9.98
2023-03-31T10:20:37.323Z,9.97
2023-03-31T10:23:24.113Z,10.00
2023-03-31T10:25:51.376Z,10.02
2023-03-31T10:28:26.230Z,10.10
2023-03-31T10:30:56.580Z,10.12
2023-03-31T10:33:33.059Z,10.19
2023-03-31T10:36:02.737Z,10.30
2023-03-31T10:38:53.083Z,10.42
2023-03-31T10:41:38.101Z,10.58
2023-03-31T10:44:04.953Z,10.83
2023-03-31T10:46:51.180Z,11.14
2023-03-31T10:49:30.152Z,11.47
2023-03-31T10:52:06.086Z,11.71
2023-03-31T10:54:39.089Z,11.84
2023-03-31T10:57:13.167Z,11.90
2023-03-31T11:00:06.100Z,11.95
2023-03-31T11:02:52.076Z,11.92
2023-03-31T11:05:51.116Z,11.91
2023-03-31T11:09:09.191Z,11.90
2023-03-31T11:11:58.076Z,11.96
2023-03-31T11:14:48.362Z,12.04
2023-03-31T11:17:41.231Z,12.04
2023-03-31T11:20:08.170Z,12.06
2023-03-31T11:22:50.093Z,12.03
2023-03-31T11:25:37.719Z,12.00
2023-03-31T11:28:41.177Z,11.94
2023-03-31T11:31:29.312Z,11.90
2023-03-31T11:34:36.152Z,11.84
2023-03-31T11:37:32.308Z,11.79
2023-03-31T11:40:14.187Z,11.62
2023-03-31T11:43:00.935Z,11.59
2023-03-31T11:45:40.206Z,11.58
2023-03-31T11:48:17.795Z,11.73
2023-03-31T11:50:54.135Z,11.94
2023-03-31T11:53:27.465Z,12.27
2023-03-31T11:56:03.179Z,12.49
2023-03-31T11:58:48.182Z,12.77
2023-03-31T12:01:28.157Z,13.19
2023-03-31T12:04:04.256Z,13.32
2023-03-31T12:06:42.787Z,13.11
2023-03-31T12:09:37.215Z,12.96
2023-03-31T12:12:36.081Z,12.78
2023-03-31T12:15:32.203Z,12.70
2023-03-31T12:18:33.203Z,12.63
2023-03-31T12:21:04.442Z,12.44
2023-03-31T12:23:45.174Z,12.47
2023-03-31T12:26:38.231Z,12.47
2023-03-31T12:29:24.217Z,12.43
2023-03-31T12:32:00.189Z,12.42
2023-03-31T12:34:35.202Z,12.40
2023-03-31T12:37:28.158Z,12.47
2023-03-31T12:40:30.472Z,12.60
2023-03-31T12:43:18.110Z,12.71
2023-03-31T12:46:24.237Z,12.83
2023-03-31T12:49:04.281Z,12.91
2023-03-31T12:52:11.153Z,12.88
2023-03-31T12:55:10.680Z,12.88
2023-03-31T12:57:37.779Z,12.87
2023-03-31T13:00:28.221Z,12.88
2023-03-31T13:03:40.206Z,12.87
2023-03-31T13:06:24.365Z,12.91
2023-03-31T13:08:55.720Z,13.06
2023-03-31T13:11:30.448Z,13.20
2023-03-31T13:14:03.013Z,13.32
2023-03-31T13:16:39.286Z,13.38
2023-03-31T13:19:13.178Z,13.32
2023-03-31T13:22:04.181Z,13.32
2023-03-31T13:24:32.547Z,13.31
2023-03-31T13:27:42.455Z,13.34
2023-03-31T13:30:41.808Z,13.33
2023-03-31T13:33:18.587Z,13.34
2023-03-31T13:35:53.252Z,13.33
2023-03-31T13:39:04.185Z,13.40
2023-03-31T13:41:49.057Z,13.38
2023-03-31T13:45:07.339Z,13.31
2023-03-31T13:47:44.540Z,13.20
2023-03-31T13:50:41.224Z,13.10
2023-03-31T13:53:14.217Z,13.03
2023-03-31T13:55:59.201Z,13.09
2023-03-31T13:58:44.791Z,13.04
2023-03-31T14:01:49.210Z,13.02
2023-03-31T14:05:13.199Z,12.99
2023-03-31T14:07:54.265Z,13.00
2023-03-31T14:10:34.384Z,13.01
2023-03-31T14:13:22.212Z,12.90
2023-03-31T14:15:59.201Z,12.95
2023-03-31T14:18:34.656Z,12.90
2023-03-31T14:21:18.164Z,12.93
2023-03-31T14:24:07.296Z,12.77
2023-03-31T14:26:49.078Z,12.74
2023-03-31T14:29:45.369Z,12.69
2023-03-31T14:32:36.571Z,12.66
2023-03-31T14:35:35.384Z,12.55
2023-03-31T14:38:06.425Z,12.62
2023-03-31T14:40:40.367Z,12.60
2023-03-31T14:43:07.430Z,12.60
2023-03-31T14:45:41.379Z,12.64
2023-03-31T14:48:14.063Z,12.65
2023-03-31T14:50:52.225Z,12.65
2023-03-31T14:53:31.481Z,12.60
2023-03-31T14:56:22.329Z,12.60
2023-03-31T14:58:53.288Z,12.45
2023-03-31T15:01:35.328Z,12.27
2023-03-31T15:04:14.407Z,12.00
2023-03-31T15:06:57.295Z,11.90
2023-03-31T15:09:28.977Z,12.03
2023-03-31T15:12:08.316Z,12.10
2023-03-31T15:14:41.289Z,12.18
2023-03-31T15:17:28.329Z,12.25
2023-03-31T15:19:58.003Z,12.22
2023-03-31T15:22:34.355Z,12.34
2023-03-31T15:25:01.202Z,12.26
2023-03-31T15:27:41.306Z,12.25
2023-03-31T15:30:21.306Z,12.23
2023-03-31T15:32:59.043Z,12.17
2023-03-31T15:35:43.271Z,12.04
2023-03-31T15:38:16.603Z,12.01
2023-03-31T15:40:51.298Z,11.95
2023-03-31T15:43:28.733Z,11.85
2023-03-31T15:46:04.336Z,11.58
2023-03-31T15:48:38.001Z,11.45
2023-03-31T15:51:45.236Z,11.27
2023-03-31T15:54:47.287Z,11.06
2023-03-31T15:57:22.599Z,11.10
2023-03-31T15:59:58.454Z,11.11
2023-03-31T16:02:36.415Z,11.16
2023-03-31T16:07:53.946Z,11.27
2023-03-31T16:10:30.314Z,11.24
2023-03-31T16:13:13.481Z,11.18
2023-03-31T16:15:47.212Z,11.15
2023-03-31T16:18:32.411Z,11.13
2023-03-31T16:21:09.367Z,11.12
2023-03-31T16:23:48.303Z,11.08
2023-03-31T16:26:22.317Z,11.09
2023-03-31T16:29:00.362Z,10.97
2023-03-31T16:31:38.122Z,10.95
2023-03-31T16:34:14.257Z,10.88
2023-03-31T16:36:41.312Z,10.85
2023-03-31T16:39:15.360Z,10.78
2023-03-31T16:41:42.564Z,10.74
2023-03-31T16:44:16.424Z,10.72
2023-03-31T16:46:43.518Z,10.72
2023-03-31T16:49:17.311Z,10.69
2023-03-31T16:51:50.337Z,10.77
2023-03-31T16:54:17.246Z,10.78
2023-03-31T16:56:50.282Z,10.84
2023-03-31T16:59:24.406Z,10.78
2023-03-31T17:01:52.615Z,10.82
2023-03-31T17:04:27.339Z,10.79
2023-03-31T17:07:00.344Z,10.83
2023-03-31T17:09:33.350Z,10.86
2023-03-31T17:12:06.373Z,10.86
2023-03-31T17:14:39.273Z,10.84
2023-03-31T17:17:12.404Z,10.82
2023-03-31T17:19:39.250Z,10.76
2023-03-31T17:22:13.353Z,10.75
2023-03-31T17:24:40.178Z,10.71
2023-03-31T17:27:13.365Z,10.69
2023-03-31T17:29:40.281Z,10.67
2023-03-31T17:32:13.453Z,10.64
2023-03-31T17:34:40.704Z,10.64
2023-03-31T17:37:14.367Z,10.60
2023-03-31T17:39:41.218Z,10.60
2023-03-31T17:42:15.317Z,10.56
2023-03-31T17:44:49.314Z,10.53
2023-03-31T17:47:23.429Z,10.54
2023-03-31T17:49:50.285Z,10.51
2023-03-31T17:52:23.313Z,10.49
2023-03-31T17:54:50.867Z,10.48
2023-03-31T17:57:18.044Z,10.45
2023-03-31T17:59:52.324Z,10.43
2023-03-31T18:02:19.450Z,10.45
2023-03-31T18:04:59.412Z,10.43
2023-03-31T18:07:33.396Z,10.41
2023-03-31T18:10:07.332Z,10.39
2023-03-31T18:12:36.709Z,10.37
2023-03-31T18:15:13.557Z,10.36
2023-03-31T18:17:40.481Z,10.33
2023-03-31T18:20:14.375Z,10.24
2023-03-31T18:22:41.451Z,10.23
2023-03-31T18:25:16.406Z,10.14
2023-03-31T18:27:43.433Z,10.15
2023-03-31T18:30:18.440Z,10.10
2023-03-31T18:32:51.417Z,10.06
2023-03-31T18:35:20.187Z,10.01
2023-03-31T18:37:53.379Z,10.00
2023-03-31T18:40:20.445Z,9.96
2023-03-31T18:42:54.442Z,9.94
2023-03-31T18:45:21.536Z,9.87
2023-03-31T18:47:55.452Z,9.87
2023-03-31T18:50:23.550Z,9.87
2023-03-31T18:53:01.363Z,9.85
2023-03-31T18:55:29.462Z,9.81
2023-03-31T18:58:03.329Z,9.78
2023-03-31T19:00:30.457Z,9.72
2023-03-31T19:03:04.477Z,9.73
2023-03-31T19:05:38.360Z,9.66
2023-03-31T19:08:11.973Z,10.10
2023-03-31T19:10:45.448Z,14.41
2023-03-31T19:13:16.331Z,17.39
2023-03-31T19:15:49.469Z,18.82
2023-03-31T19:18:16.848Z,18.50
2023-03-31T19:20:53.406Z,18.69
2023-03-31T19:23:20.503Z,18.90
2023-03-31T19:25:58.388Z,18.24
2023-03-31T19:28:25.912Z,18.82
2023-03-31T19:31:03.340Z,19.65
2023-03-31T19:33:30.185Z,19.76
2023-03-31T19:36:04.405Z,18.49
2023-03-31T19:38:39.412Z,18.41
2023-03-31T19:41:13.456Z,18.46
2023-03-31T19:43:46.467Z,18.50
2023-03-31T19:46:19.349Z,18.86
2023-03-31T19:48:46.781Z,18.22
2023-03-31T19:51:20.363Z,18.14
2023-03-31T19:53:47.319Z,18.29
2023-03-31T19:56:25.517Z,19.57
2023-03-31T19:58:53.902Z,19.04
2023-03-31T20:01:32.540Z,18.95
2023-03-31T20:04:06.518Z,19.20
2023-03-31T20:06:39.832Z,20.22
2023-03-31T20:09:13.490Z,20.02
2023-03-31T20:11:42.677Z,20.89
2023-03-31T20:14:17.417Z,20.12
2023-03-31T20:16:51.418Z,20.96
2023-03-31T20:19:25.418Z,20.65
2023-03-31T20:21:58.015Z,20.53
2023-03-31T20:24:31.464Z,20.71
2023-03-31T20:27:05.450Z,20.60
2023-03-31T20:29:32.706Z,20.21
2023-03-31T20:32:06.397Z,19.81
2023-03-31T20:34:34.329Z,18.70
2023-03-31T20:37:09.428Z,18.63
2023-03-31T20:39:43.479Z,19.39
2023-03-31T20:42:11.167Z,18.31
2023-03-31T20:44:44.444Z,17.99
2023-03-31T20:47:11.595Z,18.75
2023-03-31T20:49:38.644Z,19.01
2023-03-31T20:52:12.466Z,19.08
2023-03-31T20:54:39.379Z,18.31
2023-03-31T20:57:14.591Z,17.28
2023-03-31T20:59:41.881Z,17.57
2023-03-31T21:02:19.499Z,17.44
2023-03-31T21:04:48.128Z,17.25
2023-03-31T21:07:31.498Z,17.64
2023-03-31T21:09:58.746Z,18.10
2023-03-31T21:12:32.484Z,17.79
2023-03-31T21:15:05.452Z,17.47
2023-03-31T21:17:39.433Z,17.62
2023-03-31T21:20:07.088Z,17.75
2023-03-31T21:22:34.041Z,18.29
2023-03-31T21:25:07.459Z,15.78
2023-03-31T21:27:34.308Z,12.52
2023-03-31T21:30:07.460Z,10.79
2023-03-31T21:32:34.386Z,10.21
2023-03-31T21:35:08.530Z,9.90
2023-03-31T21:37:43.447Z,9.65
2023-03-31T21:40:17.497Z,9.54
2023-03-31T21:42:50.439Z,9.49
2023-03-31T21:45:23.657Z,9.47
2023-03-31T21:47:50.531Z,9.46
2023-03-31T21:50:24.419Z,9.48
2023-03-31T21:52:51.601Z,9.41
2023-03-31T21:55:18.626Z,9.48
2023-03-31T21:57:51.494Z,9.47
2023-03-31T22:00:47.457Z,9.42
2023-03-31T22:03:27.064Z,9.42
2023-03-31T22:06:03.109Z,9.32
2023-03-31T22:08:38.463Z,9.34
2023-03-31T22:11:07.429Z,9.31
2023-03-31T22:13:41.711Z,9.32
2023-03-31T22:16:29.461Z,9.33
2023-03-31T22:19:02.409Z,9.35
2023-03-31T22:21:29.338Z,9.34
2023-03-31T22:24:06.480Z,9.34
2023-03-31T22:26:33.608Z,9.33
2023-03-31T22:29:07.474Z,9.35
2023-03-31T22:31:34.469Z,9.35
2023-03-31T22:34:08.561Z,9.35
2023-03-31T22:36:35.743Z,9.36
2023-03-31T22:39:09.454Z,9.27
2023-03-31T22:41:36.896Z,9.34
2023-03-31T22:44:03.868Z,9.33
2023-03-31T22:46:38.515Z,9.24
2023-03-31T22:49:05.913Z,9.31
2023-03-31T22:51:39.524Z,9.31
2023-03-31T22:54:13.481Z,9.29
2023-03-31T22:56:47.471Z,9.31
2023-03-31T22:59:21.475Z,9.30
2023-03-31T23:01:59.448Z,9.22
2023-03-31T23:04:26.861Z,9.30
2023-03-31T23:07:07.578Z,9.22
2023-03-31T23:09:47.527Z,9.24
2023-03-31T23:12:20.616Z,9.25
2023-03-31T23:14:47.582Z,9.21
2023-03-31T23:17:20.500Z,9.21
2023-03-31T23:19:54.537Z,9.18
2023-03-31T23:22:21.922Z,9.18
2023-03-31T23:24:55.560Z,9.17
2023-03-31T23:27:22.467Z,9.14
2023-03-31T23:29:55.436Z,9.10
2023-03-31T23:32:22.322Z,9.11
2023-03-31T23:34:55.653Z,9.02
2023-03-31T23:37:22.542Z,9.07
2023-03-31T23:39:55.473Z,9.06
2023-03-31T23:42:28.534Z,9.05
2023-03-31T23:44:55.372Z,9.06
2023-03-31T23:47:28.502Z,9.07
2023-03-31T23:49:57.128Z,9.07
2023-03-31T23:52:31.566Z,9.09
2023-03-31T23:54:58.361Z,9.08
2023-03-31T23:57:31.653Z,9.07
2023-03-31T23:59:58.551Z,9.09
